createdAt,value
2019-03-15T00:00:07.905Z,74.70
2019-03-15T00:01:08.570Z,74.60
2019-03-15T00:02:05.617Z,74.60
2019-03-15T00:03:05.706Z,74.50
2019-03-15T00:04:05.326Z,74.40
2019-03-15T00:05:08.021Z,74.20
2019-03-15T00:06:05.995Z,74.00
2019-03-15T00:07:05.022Z,73.90
2019-03-15T00:08:08.037Z,73.60
2019-03-15T00:09:05.029Z,73.60
2019-03-15T00:10:07.847Z,73.20
2019-03-15T00:11:08.493Z,73.10
2019-03-15T00:12:05.457Z,73.10
2019-03-15T00:13:08.140Z,72.80
2019-03-15T00:14:07.690Z,72.70
2019-03-15T00:15:05.685Z,72.70
2019-03-15T00:16:05.944Z,72.60
2019-03-15T00:17:07.746Z,72.30
2019-03-15T00:18:08.373Z,72.10
2019-03-15T00:19:10.525Z,71.90
2019-03-15T00:20:07.996Z,71.80
2019-03-15T00:21:05.983Z,71.80
2019-03-15T00:22:05.126Z,71.80
2019-03-15T00:23:05.312Z,71.60
2019-03-15T00:24:08.032Z,71.40
2019-03-15T00:25:10.050Z,71.20
2019-03-15T00:26:07.633Z,71.10
2019-03-15T00:27:05.704Z,71.10
2019-03-15T00:28:08.417Z,71.00
2019-03-15T00:29:05.437Z,71.00
2019-03-15T00:30:05.562Z,70.80
2019-03-15T00:31:08.562Z,70.60
2019-03-15T00:32:10.734Z,70.70
2019-03-15T00:33:05.673Z,70.70
2019-03-15T00:34:08.423Z,70.20
2019-03-15T00:35:10.473Z,70.00
2019-03-15T00:36:08.120Z,69.70
2019-03-15T00:37:05.238Z,69.80
2019-03-15T00:38:05.312Z,69.60
2019-03-15T00:39:05.429Z,69.30
2019-03-15T00:40:05.504Z,69.10
2019-03-15T00:41:11.414Z,69.30
2019-03-15T00:42:08.765Z,69.30
2019-03-15T00:43:05.795Z,69.30
2019-03-15T00:44:05.453Z,69.30
2019-03-15T00:45:08.909Z,69.50
2019-03-15T00:46:05.198Z,69.40
2019-03-15T00:47:07.940Z,69.60
2019-03-15T00:48:08.445Z,69.60
2019-03-15T00:49:08.046Z,69.40
2019-03-15T00:50:05.084Z,69.50
2019-03-15T00:51:07.778Z,69.30
2019-03-15T00:52:05.770Z,69.40
2019-03-15T00:53:08.351Z,69.20
2019-03-15T00:54:05.395Z,69.30
2019-03-15T00:55:05.489Z,69.50
2019-03-15T00:56:05.641Z,69.40
2019-03-15T00:57:05.867Z,69.40
2019-03-15T00:58:07.719Z,69.50
2019-03-15T00:59:05.713Z,69.50
2019-03-15T01:00:05.915Z,69.40
2019-03-15T01:01:07.745Z,69.30
2019-03-15T01:02:08.388Z,69.30
2019-03-15T01:03:05.536Z,69.30
2019-03-15T01:04:05.668Z,69.30
2019-03-15T01:05:05.617Z,69.30
2019-03-15T01:06:05.748Z,69.20
2019-03-15T01:07:05.914Z,69.20
2019-03-15T01:08:05.013Z,69.10
2019-03-15T01:09:07.881Z,68.80
2019-03-15T01:10:05.846Z,68.80
2019-03-15T01:11:08.474Z,68.40
2019-03-15T01:12:10.616Z,68.40
2019-03-15T01:13:05.664Z,68.40
2019-03-15T01:14:08.319Z,68.40
2019-03-15T01:15:05.267Z,68.40
2019-03-15T01:16:08.897Z,68.40
2019-03-15T01:17:05.126Z,68.40
2019-03-15T01:18:05.241Z,68.40
2019-03-15T01:19:06.051Z,68.30
2019-03-15T01:20:05.157Z,67.80
2019-03-15T01:21:05.275Z,67.60
2019-03-15T01:22:05.376Z,67.50
2019-03-15T01:23:05.396Z,67.20
2019-03-15T01:24:08.005Z,66.80
2019-03-15T01:25:04.995Z,66.70
2019-03-15T01:26:05.233Z,66.60
2019-03-15T01:27:05.426Z,66.60
2019-03-15T01:28:08.092Z,66.40
2019-03-15T01:29:07.690Z,66.30
2019-03-15T01:30:05.814Z,66.30
2019-03-15T01:31:05.998Z,66.10
2019-03-15T01:32:07.587Z,65.60
2019-03-15T01:33:08.110Z,65.60
2019-03-15T01:34:05.070Z,65.60
2019-03-15T01:35:05.242Z,65.60
2019-03-15T01:36:05.369Z,65.50
2019-03-15T01:37:10.560Z,65.50
2019-03-15T01:38:08.024Z,65.40
2019-03-15T01:39:05.004Z,65.40
2019-03-15T01:40:07.650Z,65.20
2019-03-15T01:41:05.624Z,65.20
2019-03-15T01:42:08.376Z,65.20
2019-03-15T01:43:05.423Z,65.20
2019-03-15T01:44:05.701Z,65.30
2019-03-15T01:45:08.326Z,65.30
2019-03-15T01:46:05.390Z,65.30
2019-03-15T01:47:05.601Z,65.40
2019-03-15T01:48:05.909Z,65.30
2019-03-15T01:49:05.011Z,65.10
2019-03-15T01:50:07.665Z,64.90
2019-03-15T01:51:05.671Z,64.90
2019-03-15T01:52:05.877Z,64.90
2019-03-15T01:53:07.599Z,64.90
2019-03-15T01:54:05.602Z,64.90
2019-03-15T01:55:05.690Z,64.90
2019-03-15T01:56:05.764Z,65.00
2019-03-15T01:57:05.930Z,64.90
2019-03-15T01:58:05.101Z,64.80
2019-03-15T01:59:10.271Z,64.80
2019-03-15T02:00:05.211Z,64.90
2019-03-15T02:01:07.961Z,64.70
2019-03-15T02:02:08.549Z,64.60
2019-03-15T02:03:05.629Z,64.60
2019-03-15T02:04:06.166Z,64.60
2019-03-15T02:05:07.836Z,64.50
2019-03-15T02:06:05.949Z,64.50
2019-03-15T02:07:05.177Z,64.50
2019-03-15T02:08:10.385Z,64.40
2019-03-15T02:09:07.826Z,64.40
2019-03-15T02:10:07.769Z,64.20
2019-03-15T02:11:08.409Z,64.20
2019-03-15T02:12:07.910Z,64.20
2019-03-15T02:13:08.421Z,64.20
2019-03-15T02:14:05.414Z,64.20
2019-03-15T02:15:05.532Z,64.10
2019-03-15T02:16:05.852Z,64.20
2019-03-15T02:17:05.127Z,64.20
2019-03-15T02:18:05.230Z,64.20
2019-03-15T02:19:10.879Z,64.30
2019-03-15T02:20:05.889Z,64.30
2019-03-15T02:21:05.080Z,64.40
2019-03-15T02:22:08.825Z,64.20
2019-03-15T02:23:05.808Z,64.10
2019-03-15T02:24:05.929Z,64.00
2019-03-15T02:25:10.148Z,64.00
2019-03-15T02:26:07.781Z,64.00
2019-03-15T02:27:05.797Z,63.90
2019-03-15T02:28:05.912Z,63.90
2019-03-15T02:29:07.539Z,63.80
2019-03-15T02:30:05.550Z,63.80
2019-03-15T02:31:05.985Z,63.80
2019-03-15T02:32:07.617Z,64.00
2019-03-15T02:33:06.528Z,63.90
2019-03-15T02:34:05.840Z,64.00
2019-03-15T02:35:06.059Z,64.10
2019-03-15T02:36:07.864Z,64.10
2019-03-15T02:37:10.956Z,64.20
2019-03-15T02:38:06.154Z,64.20
2019-03-15T02:39:07.839Z,64.20
2019-03-15T02:40:05.867Z,64.20
2019-03-15T02:41:05.989Z,64.20
2019-03-15T02:42:05.131Z,64.20
2019-03-15T02:43:05.317Z,64.10
2019-03-15T02:44:08.100Z,64.10
2019-03-15T02:45:06.610Z,64.10
2019-03-15T02:46:05.850Z,64.00
2019-03-15T02:47:08.514Z,63.70
2019-03-15T02:48:05.573Z,63.80
2019-03-15T02:49:08.905Z,64.00
2019-03-15T02:50:08.396Z,64.00
2019-03-15T02:51:08.214Z,64.10
2019-03-15T02:52:07.726Z,63.90
2019-03-15T02:53:05.738Z,63.80
2019-03-15T02:54:05.923Z,63.90
2019-03-15T02:55:07.597Z,63.70
2019-03-15T02:56:10.817Z,63.80
2019-03-15T02:57:05.932Z,63.80
2019-03-15T02:58:05.197Z,63.70
2019-03-15T02:59:05.389Z,63.70
2019-03-15T03:00:05.464Z,63.80
2019-03-15T03:01:05.577Z,63.80
2019-03-15T03:02:05.844Z,63.80
2019-03-15T03:03:05.207Z,63.70
2019-03-15T03:04:05.694Z,63.50
2019-03-15T03:05:08.615Z,63.40
2019-03-15T03:06:05.511Z,63.50
2019-03-15T03:07:05.600Z,63.40
2019-03-15T03:08:10.792Z,63.30
2019-03-15T03:09:05.840Z,63.30
2019-03-15T03:10:08.484Z,63.50
2019-03-15T03:11:05.439Z,63.50
2019-03-15T03:12:08.089Z,63.60
2019-03-15T03:13:11.134Z,63.70
2019-03-15T03:14:05.159Z,63.70
2019-03-15T03:15:05.294Z,63.70
2019-03-15T03:16:05.398Z,63.70
2019-03-15T03:17:05.588Z,63.70
2019-03-15T03:18:08.220Z,63.80
2019-03-15T03:19:07.859Z,63.80
2019-03-15T03:20:05.897Z,63.80
2019-03-15T03:21:07.620Z,63.80
2019-03-15T03:22:09.601Z,63.80
2019-03-15T03:23:05.612Z,63.80
2019-03-15T03:24:10.092Z,63.90
2019-03-15T03:25:07.693Z,63.90
2019-03-15T03:26:05.698Z,63.90
2019-03-15T03:27:10.803Z,64.00
2019-03-15T03:28:05.805Z,63.90
2019-03-15T03:29:06.007Z,63.90
2019-03-15T03:30:07.767Z,64.00
2019-03-15T03:31:05.911Z,64.00
2019-03-15T03:32:08.590Z,64.20
2019-03-15T03:33:05.679Z,64.20
2019-03-15T03:34:09.155Z,64.30
2019-03-15T03:35:10.828Z,64.40
2019-03-15T03:36:05.928Z,64.40
2019-03-15T03:37:12.727Z,64.50
2019-03-15T03:38:05.780Z,64.50
2019-03-15T03:39:06.823Z,64.50
2019-03-15T03:40:08.598Z,64.60
2019-03-15T03:41:10.696Z,64.70
2019-03-15T03:42:05.756Z,64.70
2019-03-15T03:43:05.970Z,64.70
2019-03-15T03:44:08.062Z,64.70
2019-03-15T03:45:05.067Z,64.80
2019-03-15T03:46:07.779Z,64.90
2019-03-15T03:47:05.767Z,64.90
2019-03-15T03:48:08.585Z,64.90
2019-03-15T03:49:05.804Z,64.90
2019-03-15T03:50:08.526Z,64.90
2019-03-15T03:51:09.026Z,64.90
2019-03-15T03:52:07.556Z,64.90
2019-03-15T03:53:05.616Z,64.90
2019-03-15T03:54:08.332Z,64.90
2019-03-15T03:55:10.555Z,64.90
2019-03-15T03:56:08.170Z,64.90
2019-03-15T03:57:05.210Z,64.90
2019-03-15T03:58:05.295Z,64.90
2019-03-15T03:59:07.952Z,64.90
2019-03-15T04:00:06.026Z,65.00
2019-03-15T04:01:07.870Z,65.00
2019-03-15T04:02:04.991Z,65.00
2019-03-15T04:03:07.634Z,65.10
2019-03-15T04:04:10.724Z,65.10
2019-03-15T04:05:13.435Z,65.10
2019-03-15T04:06:07.889Z,65.20
2019-03-15T04:07:06.095Z,65.20
2019-03-15T04:08:10.329Z,65.30
2019-03-15T04:09:10.392Z,65.30
2019-03-15T04:10:06.298Z,65.40
2019-03-15T04:11:05.482Z,65.50
2019-03-15T04:12:08.139Z,65.60
2019-03-15T04:13:05.057Z,65.60
2019-03-15T04:14:07.787Z,65.60
2019-03-15T04:15:05.865Z,65.60
2019-03-15T04:16:05.008Z,65.70
2019-03-15T04:17:07.768Z,65.70
2019-03-15T04:18:07.195Z,65.70
2019-03-15T04:19:07.998Z,65.90
2019-03-15T04:20:05.015Z,65.80
2019-03-15T04:21:05.189Z,65.90
2019-03-15T04:22:05.317Z,65.90
2019-03-15T04:23:05.497Z,66.10
2019-03-15T04:24:05.610Z,66.10
2019-03-15T04:25:10.897Z,66.30
2019-03-15T04:26:08.482Z,66.50
2019-03-15T04:27:05.418Z,66.50
2019-03-15T04:28:10.632Z,67.20
2019-03-15T04:29:05.810Z,67.20
2019-03-15T04:30:09.376Z,67.50
2019-03-15T04:31:05.691Z,67.90
2019-03-15T04:32:05.990Z,68.10
2019-03-15T04:33:05.273Z,68.40
2019-03-15T04:34:05.467Z,68.80
2019-03-15T04:35:05.709Z,69.40
2019-03-15T04:36:08.514Z,70.20
2019-03-15T04:37:10.021Z,70.40
2019-03-15T04:38:07.606Z,70.50
2019-03-15T04:39:14.271Z,70.70
2019-03-15T04:40:05.213Z,70.70
2019-03-15T04:41:05.298Z,71.00
2019-03-15T04:42:05.512Z,71.30
2019-03-15T04:43:05.788Z,71.60
2019-03-15T04:44:05.260Z,71.80
2019-03-15T04:45:07.969Z,71.80
2019-03-15T04:46:07.538Z,72.00
2019-03-15T04:47:05.537Z,72.10
2019-03-15T04:48:08.124Z,72.20
2019-03-15T04:49:05.126Z,72.20
2019-03-15T04:50:07.710Z,72.50
2019-03-15T04:51:05.828Z,72.50
2019-03-15T04:52:07.577Z,72.70
2019-03-15T04:53:08.114Z,72.70
2019-03-15T04:54:06.264Z,72.70
2019-03-15T04:55:10.539Z,72.70
2019-03-15T04:56:05.546Z,72.70
2019-03-15T04:57:08.186Z,73.50
2019-03-15T04:58:05.142Z,73.40
2019-03-15T04:59:05.228Z,73.30
2019-03-15T05:00:08.042Z,73.40
2019-03-15T05:01:05.184Z,73.40
2019-03-15T05:02:05.320Z,73.50
2019-03-15T05:03:08.138Z,74.00
2019-03-15T05:04:07.671Z,74.10
2019-03-15T05:05:08.290Z,74.20
2019-03-15T05:06:07.771Z,74.30
2019-03-15T05:07:13.310Z,74.40
2019-03-15T05:08:10.265Z,74.40
2019-03-15T05:09:08.037Z,74.50
2019-03-15T05:10:05.053Z,74.50
2019-03-15T05:11:05.923Z,74.90
2019-03-15T05:12:05.050Z,75.20
2019-03-15T05:13:05.233Z,75.50
2019-03-15T05:14:05.342Z,75.70
2019-03-15T05:15:10.723Z,76.40
2019-03-15T05:16:05.695Z,76.40
2019-03-15T05:17:05.819Z,76.50
2019-03-15T05:18:08.480Z,76.60
2019-03-15T05:19:08.044Z,76.60
2019-03-15T05:20:05.148Z,76.60
2019-03-15T05:21:07.778Z,76.80
2019-03-15T05:22:05.752Z,76.80
2019-03-15T05:23:08.364Z,77.00
2019-03-15T05:24:07.918Z,76.80
2019-03-15T05:25:06.327Z,76.80
2019-03-15T05:26:05.615Z,76.90
2019-03-15T05:27:05.925Z,77.00
2019-03-15T05:28:05.864Z,76.90
2019-03-15T05:29:05.134Z,76.80
2019-03-15T05:30:05.204Z,76.80
2019-03-15T05:31:05.387Z,76.90
2019-03-15T05:32:08.286Z,77.00
2019-03-15T05:33:08.261Z,77.00
2019-03-15T05:34:10.308Z,77.00
2019-03-15T05:35:05.359Z,77.00
2019-03-15T05:36:05.510Z,77.00
2019-03-15T05:37:05.784Z,76.90
2019-03-15T05:38:08.486Z,77.10
2019-03-15T05:39:08.066Z,77.00
2019-03-15T05:40:04.993Z,76.90
2019-03-15T05:41:07.647Z,77.00
2019-03-15T05:42:05.648Z,76.90
2019-03-15T05:43:05.777Z,77.10
2019-03-15T05:44:08.044Z,77.10
2019-03-15T05:45:05.068Z,76.90
2019-03-15T05:46:05.251Z,76.90
2019-03-15T05:47:05.711Z,77.10
2019-03-15T05:48:08.427Z,77.10
2019-03-15T05:49:05.474Z,77.00
2019-03-15T05:50:08.442Z,77.20
2019-03-15T05:51:05.620Z,77.00
2019-03-15T05:52:05.810Z,77.30
2019-03-15T05:53:05.938Z,77.20
2019-03-15T05:54:10.056Z,77.30
2019-03-15T05:55:05.135Z,77.20
2019-03-15T05:56:07.746Z,77.30
2019-03-15T05:57:08.361Z,77.30
2019-03-15T05:58:07.866Z,77.40
2019-03-15T05:59:05.996Z,77.30
2019-03-15T06:00:07.727Z,77.30
2019-03-15T06:01:05.829Z,77.30
2019-03-15T06:02:06.011Z,77.30
2019-03-15T06:03:07.705Z,77.50
2019-03-15T06:04:05.887Z,77.50
2019-03-15T06:05:09.359Z,77.50
2019-03-15T06:06:05.377Z,77.50
2019-03-15T06:07:05.624Z,77.50
2019-03-15T06:08:08.354Z,77.60
2019-03-15T06:09:07.953Z,77.70
2019-03-15T06:10:08.573Z,77.70
2019-03-15T06:11:08.122Z,77.70
2019-03-15T06:12:05.185Z,77.70
2019-03-15T06:13:07.952Z,77.70
2019-03-15T06:14:08.541Z,77.80
2019-03-15T06:15:10.580Z,77.70
2019-03-15T06:16:08.092Z,77.70
2019-03-15T06:17:05.126Z,77.70
2019-03-15T06:18:07.214Z,77.70
2019-03-15T06:19:05.445Z,77.70
2019-03-15T06:20:06.913Z,77.70
2019-03-15T06:21:05.140Z,77.70
2019-03-15T06:22:05.289Z,77.70
2019-03-15T06:23:05.521Z,77.70
2019-03-15T06:24:10.798Z,77.70
2019-03-15T06:25:06.097Z,77.70
2019-03-15T06:26:05.386Z,77.60
2019-03-15T06:27:05.711Z,77.60
2019-03-15T06:28:05.872Z,77.70
2019-03-15T06:29:11.333Z,77.70
2019-03-15T06:30:07.920Z,77.50
2019-03-15T06:31:08.444Z,77.50
2019-03-15T06:32:05.482Z,77.50
2019-03-15T06:33:08.306Z,77.50
2019-03-15T06:34:07.774Z,77.40
2019-03-15T06:35:05.879Z,77.40
2019-03-15T06:36:05.154Z,77.30
2019-03-15T06:37:08.017Z,77.20
2019-03-15T06:38:05.234Z,77.20
2019-03-15T06:39:05.447Z,77.20
2019-03-15T06:40:05.582Z,77.10
2019-03-15T06:41:05.777Z,77.00
2019-03-15T06:42:05.971Z,77.00
2019-03-15T06:43:07.588Z,77.10
2019-03-15T06:44:05.700Z,77.00
2019-03-15T06:45:05.954Z,77.00
2019-03-15T06:46:07.654Z,76.90
2019-03-15T06:47:05.847Z,76.90
2019-03-15T06:48:07.714Z,76.70
2019-03-15T06:49:08.176Z,76.60
2019-03-15T06:50:05.362Z,76.70
2019-03-15T06:51:09.778Z,76.60
2019-03-15T06:52:08.374Z,76.60
2019-03-15T06:53:05.441Z,76.60
2019-03-15T06:54:12.253Z,76.40
2019-03-15T06:55:05.910Z,76.40
2019-03-15T06:56:05.385Z,76.40
2019-03-15T06:57:10.554Z,76.30
2019-03-15T06:58:08.062Z,76.20
2019-03-15T06:59:07.531Z,76.20
2019-03-15T07:00:05.595Z,76.00
2019-03-15T07:01:05.677Z,75.80
2019-03-15T07:02:08.429Z,75.90
2019-03-15T07:03:05.255Z,75.90
2019-03-15T07:04:07.914Z,75.60
2019-03-15T07:05:12.889Z,75.50
2019-03-15T07:06:08.507Z,75.40
2019-03-15T07:07:05.493Z,75.40
2019-03-15T07:08:05.610Z,75.40
2019-03-15T07:09:08.302Z,75.20
2019-03-15T07:10:05.342Z,75.10
2019-03-15T07:11:10.593Z,74.90
2019-03-15T07:12:13.364Z,75.00
2019-03-15T07:13:07.852Z,75.00
2019-03-15T07:14:05.807Z,75.00
2019-03-15T07:15:05.131Z,74.80
2019-03-15T07:16:07.746Z,74.60
2019-03-15T07:17:08.466Z,74.40
2019-03-15T07:18:05.450Z,74.40
2019-03-15T07:19:08.471Z,74.40
2019-03-15T07:20:07.936Z,74.30
2019-03-15T07:21:05.882Z,74.30
2019-03-15T07:22:06.078Z,74.20
2019-03-15T07:23:08.058Z,73.90
2019-03-15T07:24:07.576Z,73.80
2019-03-15T07:25:05.704Z,73.80
2019-03-15T07:26:05.800Z,73.70
2019-03-15T07:27:13.568Z,73.20
2019-03-15T07:28:08.522Z,72.60
2019-03-15T07:29:05.593Z,72.60
2019-03-15T07:30:08.293Z,72.40
2019-03-15T07:31:07.894Z,72.30
2019-03-15T07:32:08.568Z,72.10
2019-03-15T07:33:05.744Z,72.30
2019-03-15T07:34:14.259Z,72.30
2019-03-15T07:35:05.319Z,72.20
2019-03-15T07:36:08.048Z,72.00
2019-03-15T07:37:05.071Z,71.90
2019-03-15T07:38:07.745Z,71.50
2019-03-15T07:39:05.862Z,71.50
2019-03-15T07:40:05.221Z,71.40
2019-03-15T07:41:05.386Z,71.40
2019-03-15T07:42:05.585Z,71.10
2019-03-15T07:43:05.873Z,70.50
2019-03-15T07:44:11.276Z,70.10
2019-03-15T07:45:07.943Z,69.90
2019-03-15T07:46:05.976Z,69.90
2019-03-15T07:47:05.166Z,69.40
2019-03-15T07:48:05.443Z,69.30
2019-03-15T07:49:08.063Z,68.80
2019-03-15T07:50:05.066Z,68.80
2019-03-15T07:51:07.705Z,68.60
2019-03-15T07:52:08.208Z,68.70
2019-03-15T07:53:05.154Z,68.60
2019-03-15T07:54:08.147Z,68.30
2019-03-15T07:55:05.229Z,68.30
2019-03-15T07:56:05.399Z,68.10
2019-03-15T07:57:08.091Z,67.40
2019-03-15T07:58:05.042Z,67.40
2019-03-15T07:59:05.941Z,67.50
2019-03-15T08:00:07.600Z,66.80
2019-03-15T08:01:05.722Z,66.80
2019-03-15T08:02:08.359Z,66.60
2019-03-15T08:03:05.321Z,66.60
2019-03-15T08:04:17.596Z,66.60
2019-03-15T08:05:05.784Z,66.50
2019-03-15T08:06:08.416Z,66.30
2019-03-15T08:07:07.936Z,66.40
2019-03-15T08:08:05.961Z,66.30
2019-03-15T08:09:05.138Z,66.40
2019-03-15T08:10:05.571Z,66.30
2019-03-15T08:11:08.227Z,66.00
2019-03-15T08:12:07.730Z,65.70
2019-03-15T08:13:05.749Z,65.70
2019-03-15T08:14:05.463Z,65.60
2019-03-15T08:15:10.616Z,65.40
2019-03-15T08:16:08.265Z,65.40
2019-03-15T08:17:07.905Z,65.30
2019-03-15T08:18:05.952Z,65.30
2019-03-15T08:19:05.556Z,65.40
2019-03-15T08:20:08.317Z,65.10
2019-03-15T08:21:08.081Z,65.20
2019-03-15T08:22:05.170Z,65.20
2019-03-15T08:23:09.250Z,64.90
2019-03-15T08:24:05.281Z,64.90
2019-03-15T08:25:08.071Z,64.50
2019-03-15T08:26:05.176Z,64.70
2019-03-15T08:27:05.354Z,64.50
2019-03-15T08:28:05.433Z,64.60
2019-03-15T08:29:10.237Z,64.80
2019-03-15T08:30:05.273Z,64.80
2019-03-15T08:31:05.376Z,64.90
2019-03-15T08:32:05.467Z,64.90
2019-03-15T08:33:11.342Z,64.50
2019-03-15T08:34:13.999Z,64.50
2019-03-15T08:35:05.904Z,64.50
2019-03-15T08:36:07.655Z,64.50
2019-03-15T08:37:05.697Z,64.50
2019-03-15T08:38:05.941Z,64.60
2019-03-15T08:39:07.674Z,64.60
2019-03-15T08:40:08.273Z,64.50
2019-03-15T08:41:07.775Z,64.50
2019-03-15T08:42:05.777Z,64.50
2019-03-15T08:43:05.870Z,64.50
2019-03-15T08:44:06.062Z,64.50
2019-03-15T08:45:10.208Z,64.70
2019-03-15T08:46:07.789Z,64.90
2019-03-15T08:47:05.796Z,64.90
2019-03-15T08:48:08.396Z,65.30
2019-03-15T08:49:07.869Z,65.30
2019-03-15T08:50:05.857Z,65.30
2019-03-15T08:51:05.971Z,65.20
2019-03-15T08:52:05.157Z,65.00
2019-03-15T08:53:05.461Z,64.50
2019-03-15T08:54:08.281Z,64.30
2019-03-15T08:55:06.367Z,64.30
2019-03-15T08:56:05.503Z,64.30
2019-03-15T08:57:05.706Z,64.00
2019-03-15T08:58:19.050Z,63.90
2019-03-15T08:59:05.922Z,62.70
2019-03-15T09:00:05.157Z,64.00
2019-03-15T09:01:11.319Z,64.10
2019-03-15T09:02:12.931Z,64.30
2019-03-15T09:03:06.060Z,64.30
2019-03-15T09:04:05.557Z,64.10
2019-03-15T09:05:05.736Z,64.00
2019-03-15T09:06:08.433Z,64.10
2019-03-15T09:07:05.369Z,64.10
2019-03-15T09:08:05.440Z,64.00
2019-03-15T09:09:08.069Z,63.90
2019-03-15T09:10:05.037Z,63.90
2019-03-15T09:11:07.678Z,63.80
2019-03-15T09:12:05.803Z,63.90
2019-03-15T09:13:05.998Z,63.60
2019-03-15T09:14:05.143Z,63.70
2019-03-15T09:15:07.811Z,64.00
2019-03-15T09:16:05.889Z,63.90
2019-03-15T09:17:05.245Z,63.90
2019-03-15T09:18:05.453Z,64.00
2019-03-15T09:19:08.450Z,64.80
2019-03-15T09:20:08.155Z,65.20
2019-03-15T09:21:05.137Z,65.10
2019-03-15T09:22:07.782Z,65.30
2019-03-15T09:23:05.927Z,65.30
2019-03-15T09:24:07.706Z,65.50
2019-03-15T09:25:20.331Z,65.50
2019-03-15T09:26:10.938Z,65.60
2019-03-15T09:27:10.796Z,65.60
2019-03-15T09:28:08.547Z,65.80
2019-03-15T09:29:08.138Z,66.00
2019-03-15T09:30:05.282Z,66.00
2019-03-15T09:31:07.943Z,65.90
2019-03-15T09:32:09.603Z,66.00
2019-03-15T09:33:05.688Z,66.30
2019-03-15T09:34:10.939Z,66.70
2019-03-15T09:35:08.574Z,67.10
2019-03-15T09:36:05.487Z,67.20
2019-03-15T09:37:05.635Z,67.10
2019-03-15T09:38:05.697Z,67.20
2019-03-15T09:39:08.338Z,67.20
2019-03-15T09:40:07.828Z,67.30
2019-03-15T09:41:08.361Z,67.40
2019-03-15T09:42:05.454Z,67.40
2019-03-15T09:43:08.111Z,68.10
2019-03-15T09:44:05.220Z,68.10
2019-03-15T09:45:08.069Z,68.40
2019-03-15T09:46:05.202Z,68.40
2019-03-15T09:47:07.864Z,68.80
2019-03-15T09:48:08.467Z,69.10
2019-03-15T09:49:07.991Z,69.40
2019-03-15T09:50:33.527Z,69.70
2019-03-15T09:51:07.585Z,70.00
2019-03-15T09:52:05.671Z,70.00
2019-03-15T09:53:06.509Z,70.30
2019-03-15T09:54:05.658Z,70.50
2019-03-15T09:55:05.851Z,70.50
2019-03-15T09:56:05.037Z,70.80
2019-03-15T09:57:07.777Z,71.20
2019-03-15T09:58:05.980Z,71.30
2019-03-15T09:59:05.134Z,71.50
2019-03-15T10:00:05.335Z,71.80
2019-03-15T10:01:06.377Z,72.00
2019-03-15T10:02:08.335Z,72.40
2019-03-15T10:03:22.675Z,72.50
2019-03-15T10:04:05.917Z,72.50
2019-03-15T10:05:11.776Z,72.70
2019-03-15T10:06:19.151Z,73.00
2019-03-15T10:07:05.616Z,73.20
2019-03-15T10:08:08.306Z,73.50
2019-03-15T10:09:07.755Z,73.60
2019-03-15T10:10:14.641Z,73.60
2019-03-15T10:11:05.035Z,74.00
2019-03-15T10:12:05.181Z,73.80
2019-03-15T10:13:06.781Z,73.90
2019-03-15T10:14:05.976Z,74.00
2019-03-15T10:15:08.511Z,74.40
2019-03-15T10:16:05.711Z,74.40
2019-03-15T10:17:05.896Z,74.20
2019-03-15T10:18:05.168Z,74.30
2019-03-15T10:19:05.333Z,74.50
2019-03-15T10:20:08.063Z,75.00
2019-03-15T10:21:05.247Z,75.00
2019-03-15T10:22:05.493Z,75.10
2019-03-15T10:23:06.901Z,74.90
2019-03-15T10:24:10.175Z,75.10
2019-03-15T10:25:07.885Z,75.10
2019-03-15T10:26:06.068Z,75.20
2019-03-15T10:27:10.470Z,75.40
2019-03-15T10:28:05.591Z,75.40
2019-03-15T10:29:19.368Z,75.50
2019-03-15T10:30:05.642Z,75.40
2019-03-15T10:31:05.895Z,75.30
2019-03-15T10:32:05.207Z,75.50
2019-03-15T10:33:05.346Z,75.80
2019-03-15T10:34:06.344Z,76.10
2019-03-15T10:35:05.558Z,76.30
2019-03-15T10:36:05.763Z,76.30
2019-03-15T10:37:06.812Z,76.40
2019-03-15T10:38:11.036Z,76.80
2019-03-15T10:39:10.081Z,76.60
2019-03-15T10:40:05.058Z,76.70
2019-03-15T10:41:07.671Z,76.50
2019-03-15T10:42:08.358Z,76.60
2019-03-15T10:43:07.903Z,76.70
2019-03-15T10:44:05.991Z,76.80
2019-03-15T10:45:07.788Z,76.60
2019-03-15T10:46:06.750Z,76.60
2019-03-15T10:47:05.919Z,76.60
2019-03-15T10:48:08.625Z,76.80
2019-03-15T10:49:05.649Z,76.80
2019-03-15T10:50:05.913Z,76.80
2019-03-15T10:51:05.034Z,77.00
2019-03-15T10:52:10.461Z,77.60
2019-03-15T10:53:07.969Z,77.70
2019-03-15T10:54:07.547Z,77.50
2019-03-15T10:55:05.631Z,77.50
2019-03-15T10:56:05.737Z,77.20
2019-03-15T10:57:05.848Z,77.30
2019-03-15T10:58:08.508Z,77.60
2019-03-15T10:59:05.509Z,77.60
2019-03-15T11:00:08.467Z,77.80
2019-03-15T11:01:05.463Z,77.90
2019-03-15T11:02:05.623Z,77.90
2019-03-15T11:03:05.679Z,78.20
2019-03-15T11:04:05.816Z,78.50
2019-03-15T11:05:05.994Z,78.40
2019-03-15T11:06:07.818Z,78.50
2019-03-15T11:07:08.475Z,78.50
2019-03-15T11:08:13.267Z,78.50
2019-03-15T11:09:05.372Z,78.50
2019-03-15T11:10:05.665Z,78.50
2019-03-15T11:11:05.878Z,78.30
2019-03-15T11:12:05.052Z,78.10
2019-03-15T11:13:05.171Z,77.90
2019-03-15T11:14:05.319Z,77.80
2019-03-15T11:15:08.005Z,78.00
2019-03-15T11:16:04.977Z,77.80
2019-03-15T11:17:05.093Z,77.60
2019-03-15T11:18:05.188Z,77.20
2019-03-15T11:19:07.851Z,77.40
2019-03-15T11:20:08.508Z,77.30
2019-03-15T11:21:08.311Z,76.80
2019-03-15T11:22:10.607Z,76.70
2019-03-15T11:23:05.943Z,76.70
2019-03-15T11:24:05.222Z,76.60
2019-03-15T11:25:07.885Z,77.00
2019-03-15T11:26:14.253Z,77.00
2019-03-15T11:27:05.615Z,76.90
2019-03-15T11:28:05.946Z,76.80
2019-03-15T11:29:07.808Z,76.80
2019-03-15T11:30:05.965Z,76.80
2019-03-15T11:31:07.700Z,76.40
2019-03-15T11:32:08.241Z,76.20
2019-03-15T11:33:05.263Z,76.20
2019-03-15T11:34:05.568Z,76.20
2019-03-15T11:35:05.703Z,76.20
2019-03-15T11:36:05.564Z,76.40
2019-03-15T11:37:05.715Z,76.50
2019-03-15T11:38:05.947Z,76.40
2019-03-15T11:39:05.148Z,76.50
2019-03-15T11:40:05.425Z,76.90
2019-03-15T11:41:08.129Z,77.20
2019-03-15T11:42:05.156Z,77.10
2019-03-15T11:43:05.340Z,77.20
2019-03-15T11:44:05.485Z,77.40
2019-03-15T11:45:08.123Z,76.60
2019-03-15T11:46:05.217Z,76.60
2019-03-15T11:47:05.519Z,76.40
2019-03-15T11:48:09.270Z,76.30
2019-03-15T11:49:08.008Z,76.00
2019-03-15T11:50:07.611Z,76.00
2019-03-15T11:51:08.124Z,75.80
2019-03-15T11:52:05.095Z,75.80
2019-03-15T11:53:05.369Z,75.60
2019-03-15T11:54:08.034Z,75.40
2019-03-15T11:55:05.988Z,75.40
2019-03-15T11:56:07.712Z,75.50
2019-03-15T11:57:08.208Z,75.70
2019-03-15T11:58:05.211Z,75.70
2019-03-15T11:59:10.343Z,75.80
2019-03-15T12:00:08.056Z,75.90
2019-03-15T12:01:10.113Z,76.20
2019-03-15T12:02:11.081Z,75.70
2019-03-15T12:03:05.099Z,75.60
2019-03-15T12:04:10.458Z,75.70
2019-03-15T12:05:08.110Z,75.90
2019-03-15T12:06:05.211Z,75.90
2019-03-15T12:07:05.490Z,76.10
2019-03-15T12:08:08.350Z,76.40
2019-03-15T12:09:05.401Z,76.40
2019-03-15T12:10:05.435Z,76.30
2019-03-15T12:11:08.108Z,76.20
2019-03-15T12:12:05.179Z,76.20
2019-03-15T12:13:05.298Z,76.00
2019-03-15T12:14:10.620Z,75.80
2019-03-15T12:15:05.583Z,75.80
2019-03-15T12:16:05.682Z,75.70
2019-03-15T12:17:05.803Z,75.80
2019-03-15T12:18:08.852Z,75.80
2019-03-15T12:19:05.190Z,76.00
2019-03-15T12:20:07.904Z,76.40
2019-03-15T12:21:08.443Z,76.60
2019-03-15T12:22:07.043Z,76.60
2019-03-15T12:23:05.121Z,76.80
2019-03-15T12:24:07.780Z,77.10
2019-03-15T12:25:05.790Z,77.10
2019-03-15T12:26:05.917Z,77.30
2019-03-15T12:27:06.024Z,77.20
2019-03-15T12:28:07.664Z,77.20
2019-03-15T12:29:08.141Z,77.20
2019-03-15T12:30:10.143Z,77.30
2019-03-15T12:31:05.190Z,77.20
2019-03-15T12:32:07.830Z,77.50
2019-03-15T12:33:08.274Z,77.50
2019-03-15T12:34:05.273Z,77.50
2019-03-15T12:35:05.390Z,77.50
2019-03-15T12:36:05.546Z,77.50
2019-03-15T12:37:08.198Z,77.50
2019-03-15T12:38:07.782Z,77.70
2019-03-15T12:39:05.843Z,77.70
2019-03-15T12:40:05.978Z,77.70
2019-03-15T12:41:07.541Z,78.00
2019-03-15T12:42:05.483Z,77.90
2019-03-15T12:43:05.674Z,78.00
2019-03-15T12:44:10.852Z,78.10
2019-03-15T12:45:08.432Z,78.20
2019-03-15T12:46:08.108Z,78.30
2019-03-15T12:47:06.770Z,78.30
2019-03-15T12:48:05.906Z,78.30
2019-03-15T12:49:05.999Z,78.40
2019-03-15T12:50:10.400Z,78.50
2019-03-15T12:51:05.417Z,78.50
2019-03-15T12:52:05.432Z,78.50